createdAt,value
2019-05-25T00:03:54.726Z,0.63
2019-05-25T00:08:58.007Z,0.90
2019-05-25T00:14:01.289Z,1.13
2019-05-25T00:19:06.967Z,1.00
2019-05-25T00:24:12.676Z,1.07
2019-05-25T00:29:14.847Z,1.10
2019-05-25T00:34:18.367Z,1.00
2019-05-25T00:39:21.647Z,1.53
2019-05-25T00:44:25.185Z,1.03
2019-05-25T00:49:28.471Z,0.80
2019-05-25T00:54:31.750Z,1.40
2019-05-25T00:59:35.023Z,1.40
2019-05-25T01:04:38.540Z,1.63
2019-05-25T01:09:42.087Z,1.30
2019-05-25T01:14:45.364Z,1.60
2019-05-25T01:19:48.714Z,1.30
2019-05-25T01:24:52.236Z,1.00
2019-05-25T01:29:55.520Z,1.80
2019-05-25T01:34:59.044Z,1.43
2019-05-25T01:40:02.322Z,1.73
2019-05-25T01:45:06.846Z,1.63
2019-05-25T01:50:10.287Z,1.70
2019-05-25T01:55:13.579Z,1.67
2019-05-25T02:00:17.337Z,1.87
2019-05-25T02:05:20.618Z,2.00
2019-05-25T02:10:24.159Z,1.60
2019-05-25T02:15:27.436Z,1.50
2019-05-25T02:20:30.724Z,1.90
2019-05-25T02:25:34.335Z,2.43
2019-05-25T02:30:37.870Z,2.40
2019-05-25T02:35:41.434Z,2.40
2019-05-25T02:40:44.984Z,2.07
2019-05-25T02:45:48.264Z,2.30
2019-05-25T02:50:53.130Z,2.30
2019-05-25T02:55:58.248Z,2.00
2019-05-25T03:01:01.599Z,2.03
2019-05-25T03:06:06.926Z,2.30
2019-05-25T03:11:11.207Z,2.43
2019-05-25T03:16:14.733Z,2.30
2019-05-25T03:21:18.013Z,2.90
2019-05-25T03:26:21.295Z,2.77
2019-05-25T03:31:24.592Z,2.97
2019-05-25T03:36:27.861Z,3.00
2019-05-25T03:41:31.140Z,2.80
2019-05-25T03:46:34.423Z,3.50
2019-05-25T03:51:37.707Z,3.10
2019-05-25T03:56:40.988Z,2.67
2019-05-25T04:01:44.524Z,2.53
2019-05-25T04:06:47.831Z,2.87
2019-05-25T04:11:51.113Z,3.50
2019-05-25T04:16:54.419Z,2.80
2019-05-25T04:21:57.947Z,2.90
2019-05-25T04:27:01.466Z,3.10
2019-05-25T04:32:05.003Z,2.27
2019-05-25T04:37:08.284Z,2.70
2019-05-25T04:42:11.576Z,3.33
2019-05-25T04:47:26.690Z,3.47
2019-05-25T04:52:20.100Z,3.60
2019-05-25T04:57:23.667Z,3.57
2019-05-25T05:02:27.265Z,3.23
2019-05-25T05:07:30.777Z,2.90
2019-05-25T05:12:34.313Z,3.30
2019-05-25T05:17:37.599Z,3.63
2019-05-25T05:22:41.131Z,3.37
2019-05-25T05:27:44.419Z,3.60
2019-05-25T05:32:47.703Z,3.33
2019-05-25T05:37:51.516Z,3.30
2019-05-25T05:42:55.191Z,3.83
2019-05-25T05:48:00.004Z,3.33
2019-05-25T05:53:03.722Z,3.70
2019-05-25T05:58:07.240Z,3.60
2019-05-25T06:03:10.518Z,2.63
2019-05-25T06:08:14.065Z,3.57
2019-05-25T06:13:17.491Z,2.77
2019-05-25T06:18:20.901Z,3.50
2019-05-25T06:23:24.416Z,3.40
2019-05-25T06:28:27.697Z,3.53
2019-05-25T06:33:31.224Z,3.47
2019-05-25T06:38:34.514Z,3.50
2019-05-25T06:43:37.801Z,3.27
2019-05-25T06:48:41.081Z,3.10
2019-05-25T06:53:44.365Z,3.60
2019-05-25T06:58:47.642Z,4.17
2019-05-25T07:03:50.942Z,3.80
2019-05-25T07:08:54.207Z,3.60
2019-05-25T07:13:57.729Z,3.60
2019-05-25T07:19:01.258Z,1.63
2019-05-25T07:24:06.236Z,2.17
2019-05-25T07:29:09.516Z,1.10
2019-05-25T07:34:12.792Z,1.60
2019-05-25T07:39:16.984Z,1.43
2019-05-25T07:44:22.105Z,1.43
2019-05-25T07:49:25.674Z,1.27
2019-05-25T07:54:29.481Z,1.00
2019-05-25T07:59:32.780Z,1.03
2019-05-25T08:04:36.088Z,1.00
2019-05-25T08:09:39.781Z,0.90
2019-05-25T08:14:50.275Z,0.90
2019-05-25T08:19:54.102Z,1.43
2019-05-25T08:24:57.647Z,1.10
2019-05-25T08:30:18.200Z,1.03
2019-05-25T08:41:11.072Z,1.10
2019-05-25T08:46:29.381Z,1.10
2019-05-25T08:51:32.668Z,1.00
2019-05-25T08:56:35.959Z,1.17
2019-05-25T09:01:39.233Z,2.00
2019-05-25T09:06:42.540Z,1.30
2019-05-25T09:11:45.816Z,1.30
2019-05-25T09:16:49.105Z,1.10
2019-05-25T09:22:01.942Z,1.47
2019-05-25T09:26:57.929Z,1.73
2019-05-25T09:32:01.211Z,1.83
2019-05-25T09:37:04.734Z,1.50
2019-05-25T09:42:08.264Z,1.30
2019-05-25T09:47:11.898Z,1.73
2019-05-25T09:52:15.176Z,1.67
2019-05-25T09:57:18.463Z,1.43
2019-05-25T10:02:21.974Z,2.03
2019-05-25T10:07:25.293Z,1.47
2019-05-25T10:12:28.564Z,1.80
2019-05-25T10:17:31.871Z,1.60
2019-05-25T10:22:35.923Z,1.63
2019-05-25T10:27:39.198Z,1.83
2019-05-25T10:32:42.696Z,1.80
2019-05-25T10:37:45.997Z,1.73
2019-05-25T10:42:49.273Z,1.50
2019-05-25T10:47:52.805Z,1.90
2019-05-25T10:52:56.079Z,2.10
2019-05-25T10:57:59.430Z,1.97
2019-05-25T11:03:02.726Z,2.00
2019-05-25T11:08:06.013Z,2.23
2019-05-25T11:13:09.294Z,2.37
2019-05-25T11:18:12.571Z,3.27
2019-05-25T11:23:15.859Z,2.90
2019-05-25T11:28:19.151Z,3.43
2019-05-25T11:33:22.443Z,2.90
2019-05-25T11:38:25.982Z,3.00
2019-05-25T11:43:29.255Z,2.73
2019-05-25T11:48:32.555Z,3.47
2019-05-25T11:53:35.847Z,2.90
2019-05-25T11:58:47.302Z,3.63
2019-05-25T12:03:44.438Z,3.30
2019-05-25T12:08:47.721Z,3.57
2019-05-25T12:13:51.006Z,3.77
2019-05-25T12:18:54.523Z,4.07
2019-05-25T12:23:57.932Z,4.43
2019-05-25T12:29:01.731Z,3.53
2019-05-25T12:34:05.653Z,3.83
2019-05-25T12:39:08.942Z,3.53
2019-05-25T12:44:12.452Z,3.83
2019-05-25T12:49:15.815Z,2.07
2019-05-25T12:54:19.042Z,2.97
2019-05-25T12:59:22.566Z,2.87
2019-05-25T13:04:26.891Z,2.67
2019-05-25T13:09:32.933Z,2.70
2019-05-25T13:14:36.460Z,2.30
2019-05-25T13:19:39.797Z,2.80
2019-05-25T13:24:43.110Z,2.97
2019-05-25T13:29:46.613Z,2.50
2019-05-25T13:34:49.914Z,2.20
2019-05-25T13:39:53.197Z,2.27
2019-05-25T13:44:56.721Z,2.57
2019-05-25T13:50:00.253Z,2.80
2019-05-25T13:55:04.075Z,2.77
2019-05-25T14:00:07.917Z,2.90
2019-05-25T14:05:11.474Z,2.50
2019-05-25T14:10:15.061Z,2.67
2019-05-25T14:15:18.338Z,2.80
2019-05-25T14:20:21.876Z,2.50
2019-05-25T14:25:25.158Z,2.83
2019-05-25T14:30:28.437Z,2.07
2019-05-25T14:35:31.915Z,2.90
2019-05-25T14:40:35.198Z,2.57
2019-05-25T14:45:38.727Z,2.10
2019-05-25T14:50:42.011Z,1.80
2019-05-25T14:55:45.338Z,2.10
2019-05-25T15:00:48.813Z,1.47
2019-05-25T15:05:52.336Z,1.70
2019-05-25T15:10:58.576Z,1.90
2019-05-25T15:16:02.260Z,2.10
2019-05-25T15:21:05.787Z,1.73
2019-05-25T15:26:09.385Z,1.60
2019-05-25T15:31:12.904Z,1.50
2019-05-25T15:36:16.191Z,1.50
2019-05-25T15:41:19.589Z,1.30
2019-05-25T15:46:22.934Z,1.37
2019-05-25T15:51:26.629Z,1.10
2019-05-25T15:56:29.920Z,1.40
2019-05-25T16:01:33.545Z,2.13
2019-05-25T16:06:36.819Z,1.20
2019-05-25T16:11:40.103Z,1.80
2019-05-25T16:16:43.733Z,1.90
2019-05-25T16:21:47.251Z,1.47
2019-05-25T16:26:50.541Z,1.60
2019-05-25T16:31:53.828Z,3.10
2019-05-25T16:36:57.249Z,1.40
2019-05-25T16:42:00.572Z,1.60
2019-05-25T16:47:03.949Z,1.47
2019-05-25T16:52:07.324Z,1.57
2019-05-25T16:57:10.850Z,1.17
2019-05-25T17:02:14.139Z,1.33
2019-05-25T17:07:17.798Z,1.87
2019-05-25T17:12:21.551Z,1.40
2019-05-25T17:17:24.908Z,1.43
2019-05-25T17:22:28.212Z,1.20
2019-05-25T17:27:31.714Z,1.20
2019-05-25T17:32:35.280Z,1.67
2019-05-25T17:37:38.562Z,1.27
2019-05-25T17:42:42.092Z,1.50
2019-05-25T17:47:45.617Z,1.50
2019-05-25T17:52:49.162Z,1.27
2019-05-25T17:57:52.707Z,1.33
2019-05-25T18:02:55.972Z,1.27
2019-05-25T18:08:00.024Z,1.60
2019-05-25T18:13:04.630Z,1.60
2019-05-25T18:18:10.768Z,0.97
2019-05-25T18:23:14.162Z,1.00
2019-05-25T18:28:19.101Z,0.93
2019-05-25T18:33:22.466Z,0.97
2019-05-25T18:38:25.990Z,1.00
2019-05-25T18:43:29.526Z,0.90
2019-05-25T18:48:34.454Z,0.80
2019-05-25T18:53:37.897Z,1.33
2019-05-25T18:58:43.981Z,0.73
2019-05-25T19:03:47.244Z,0.90
2019-05-25T19:08:50.770Z,1.00
2019-05-25T19:13:54.051Z,0.87
2019-05-25T19:18:57.628Z,1.20
2019-05-25T19:24:01.231Z,0.90
2019-05-25T19:29:05.722Z,0.97
2019-05-25T19:34:09.531Z,1.30
2019-05-25T19:39:13.061Z,1.43
2019-05-25T19:44:16.588Z,1.13
2019-05-25T19:49:19.879Z,1.47
2019-05-25T19:54:25.362Z,1.10
2019-05-25T19:59:28.816Z,1.33
2019-05-25T20:04:32.548Z,1.57
2019-05-25T20:09:45.961Z,1.40
2019-05-25T20:14:49.570Z,1.90
2019-05-25T20:19:53.103Z,1.70
2019-05-25T20:24:56.604Z,1.40
2019-05-25T20:30:00.137Z,1.70
2019-05-25T20:35:04.588Z,1.60
2019-05-25T20:40:09.351Z,1.67
2019-05-25T20:45:13.618Z,2.10
2019-05-25T20:50:17.139Z,2.23
2019-05-25T20:55:20.657Z,2.20
2019-05-25T21:00:24.379Z,1.90
2019-05-25T21:05:28.031Z,3.30
2019-05-25T21:10:31.332Z,2.67
2019-05-25T21:15:34.864Z,2.97
2019-05-25T21:20:38.393Z,3.53
2019-05-25T21:25:41.673Z,2.97
2019-05-25T21:30:44.953Z,3.47
2019-05-25T21:35:53.269Z,3.60
2019-05-25T21:40:53.798Z,3.23
2019-05-25T21:45:57.332Z,3.93
2019-05-25T21:51:00.618Z,3.93
2019-05-25T21:56:04.149Z,3.93
2019-05-25T22:01:07.563Z,3.20
2019-05-25T22:06:23.247Z,3.77
2019-05-25T22:11:15.872Z,3.50
2019-05-25T22:16:19.161Z,3.43
2019-05-25T22:21:22.678Z,3.73
2019-05-25T22:26:27.099Z,3.10
2019-05-25T22:31:30.377Z,3.10
2019-05-25T22:36:40.156Z,3.13
2019-05-25T22:41:38.916Z,4.00
2019-05-25T22:46:42.195Z,3.60
2019-05-25T22:51:45.481Z,3.57
2019-05-25T22:56:51.222Z,4.07
2019-05-25T23:01:56.040Z,3.60
2019-05-25T23:06:59.640Z,3.70
2019-05-25T23:12:02.915Z,3.60
2019-05-25T23:17:06.444Z,3.90
2019-05-25T23:22:09.959Z,3.50
2019-05-25T23:27:16.382Z,3.80
2019-05-25T23:32:19.579Z,3.53
2019-05-25T23:37:23.204Z,4.87
2019-05-25T23:42:26.720Z,3.93
2019-05-25T23:47:31.714Z,4.63
2019-05-25T23:52:36.029Z,4.60
2019-05-25T23:57:39.562Z,5.10
